Main page
METAR-TAF:

METAR-TAF

Airports :

Formosa International Airport

Formosa, Argentina

latitude: 26-12S, longitude: 058-14W, elevation: 59 m

Current weather observation

The report was made 22 minutes ago, at 05:00 UTC
Wind 4 kt from the Southeast
Temperature 15°C
Humidity 88%
Pressure 1014 hPa
Visibility 10 km or more
no clouds below 1500 m and no cumulonimbus

METAR: SARF 130500Z 14004KT CAVOK 15/13 Q1014

Time: 02:22 (05:22 UTC)

Forecast

The report was made 6 hours and 22 minutes ago, at 23:00 UTC
Forecast valid from 13 at 00 UTC to 13 at 24 UTC
Wind 5 kt from the East
Visibility 10 km or more
no clouds below 1500 m and no cumulonimbus

TAF: SARF 122300Z 1300/1324 09005KT CAVOK TX26/1319Z TN13/1310Z

Weather observations and forecasts of more than 4000 airports (METAR and TAF reports).

The available stations are represented by yellow and red dots on the map.

Hover mouse over dot to see the name of the station.

Then click to see weather observations and forecasts.

To change the map : click on the green buttons with a black cross to zoom in, on the green button with a dash to zoom out, or on the green arrows for adjacent maps.


METAR-TAF: